Florence Regional Airport
KFLO : now visible

Airfield :











YOU CAN JOIN US ON...

 
LOGIN :

Register | Disclaimer

   EN    FR    IT 

 









Legend :    VFR   Marginal VFR   IFR   Intensive IFR   Very Intensive IFR
Visi :
Ceiling :
>= 8 km
>= 3000ft
5 to 8 km
1000 to 3000 ft
1500m to 5 km
500 to 1000 ft
800 to 1500m
200 to 500 ft
< 800m
< 200 ft
Symbols :   Thunderstorms  Fog  Heavy snow  Heavy precipitations  Wind > 20 kt






- Airport Elevation : 146 ft
- IATA code : FLO


KFLO - Florence Regional

CURRENT METAR :
  • 162114Z 36008KT 10SM BKN028 OVC038 25/21 A2991 RMK AO2 T02500206

EXPIRED METARs :
  • 162053Z 01007KT 10SM BKN025 OVC039 26/21 A2990 RMK AO2 SLP123 T02560211 56006
  • 162025Z 35008KT 10SM FEW016 BKN024 OVC038 26/21 A2990 RMK AO2 T02560206
  • 161953Z AUTO 36008KT 10SM FEW019 BKN034 OVC041 26/21 A2990 RMK AO2 SLP123 T02560211
  • 161853Z 02009KT 10SM SCT016 OVC024 26/21 A2992 RMK AO2 SLP127 T02610211

TAF KFLO
Valid from the 16 at 18:00 until the 17 at 18:00 UTC


161722Z 1618/1718 03007KT P6SM BKN020
FM170000 03004KT P6SM BKN010
FM170800 02004KT P6SM BKN030
FM171300 03006KT P6SM BKN020
KZJX FIR / North America



MET'MAP, your aeronautical weather chart ! - Copyright ORBIFLY December 2007 - Disclaimer

ORBIFLY MET'MAP TEAM :

Programming & Development : Alexandra Zaïnal
Original concept : Baudouin d'Aumeries
Technical & hardware support : Manuel Goepfert
Assistance : Marc-Olivier Méhu




SOURCES & CREDITS :

   NOAA       Earth
Advisory